createdAt,value
2018-07-28T00:00:46.482Z,7.30
2018-07-28T00:01:46.468Z,7.20
2018-07-28T00:02:46.440Z,7.10
2018-07-28T00:03:46.418Z,8.00
2018-07-28T00:04:46.397Z,6.90
2018-07-28T00:05:46.377Z,7.30
2018-07-28T00:06:46.362Z,7.50
2018-07-28T00:07:46.339Z,7.60
2018-07-28T00:08:46.325Z,7.10
2018-07-28T00:09:46.297Z,7.30
2018-07-28T00:10:46.276Z,7.80
2018-07-28T00:11:46.254Z,7.30
2018-07-28T00:12:46.235Z,7.60
2018-07-28T00:13:46.214Z,7.50
2018-07-28T00:14:46.191Z,8.00
2018-07-28T00:15:46.574Z,7.40
2018-07-28T00:16:46.154Z,7.40
2018-07-28T00:17:46.128Z,8.00
2018-07-28T00:18:46.113Z,7.70
2018-07-28T00:19:46.093Z,7.60
2018-07-28T00:20:46.067Z,7.20
2018-07-28T00:21:46.550Z,7.70
2018-07-28T00:22:46.029Z,8.10
2018-07-28T00:23:46.010Z,8.00
2018-07-28T00:24:45.985Z,7.60
2018-07-28T00:25:45.961Z,7.70
2018-07-28T00:26:45.942Z,8.00
2018-07-28T00:27:45.922Z,8.60
2018-07-28T00:28:45.901Z,7.40
2018-07-28T00:29:45.880Z,7.80
2018-07-28T00:30:45.863Z,7.50
2018-07-28T00:31:45.841Z,8.10
2018-07-28T00:32:45.821Z,8.30
2018-07-28T00:33:45.799Z,8.00
2018-07-28T00:34:45.776Z,8.40
2018-07-28T00:35:45.754Z,8.60
2018-07-28T00:36:45.737Z,8.50
2018-07-28T00:37:45.713Z,8.50
2018-07-28T00:38:45.694Z,8.20
2018-07-28T00:39:45.675Z,7.60
2018-07-28T00:40:45.653Z,8.50
2018-07-28T00:41:45.637Z,7.90
2018-07-28T00:42:45.813Z,8.20
2018-07-28T00:43:45.591Z,8.50
2018-07-28T00:44:45.569Z,7.60
2018-07-28T00:45:45.551Z,8.50
2018-07-28T00:46:45.526Z,8.30
2018-07-28T00:47:45.507Z,8.50
2018-07-28T00:48:45.482Z,8.60
2018-07-28T00:50:27.819Z,8.60
2018-07-28T00:51:27.598Z,8.40
2018-07-28T00:52:27.576Z,8.00
2018-07-28T00:53:27.565Z,8.80
2018-07-28T00:54:27.535Z,8.30
2018-07-28T00:55:27.511Z,8.90
2018-07-28T00:56:27.493Z,8.50
2018-07-28T00:57:27.468Z,9.00
2018-07-28T00:58:27.448Z,8.40
2018-07-28T00:59:27.427Z,8.30
2018-07-28T01:00:27.405Z,8.80
2018-07-28T01:01:27.387Z,9.40
2018-07-28T01:02:27.365Z,8.90
2018-07-28T01:03:27.344Z,8.50
2018-07-28T01:04:27.324Z,8.70
2018-07-28T01:05:27.302Z,8.50
2018-07-28T01:06:27.486Z,8.70
2018-07-28T01:07:27.462Z,9.00
2018-07-28T01:08:27.239Z,8.70
2018-07-28T01:09:27.216Z,9.00
2018-07-28T01:10:27.199Z,8.70
2018-07-28T01:11:27.177Z,8.50
2018-07-28T01:12:27.155Z,9.30
2018-07-28T01:13:27.336Z,9.70
2018-07-28T01:14:27.315Z,9.80
2018-07-28T01:15:27.096Z,9.00
2018-07-28T01:16:27.071Z,8.90
2018-07-28T01:17:27.253Z,8.70
2018-07-28T01:18:27.026Z,8.80
2018-07-28T01:19:27.005Z,9.00
2018-07-28T01:20:26.988Z,8.50
2018-07-28T01:21:26.962Z,9.20
2018-07-28T01:22:26.943Z,9.30
2018-07-28T01:23:26.929Z,9.40
2018-07-28T01:24:26.900Z,9.00
2018-07-28T01:25:26.882Z,8.90
2018-07-28T01:26:26.857Z,9.80
2018-07-28T01:27:26.841Z,9.70
2018-07-28T01:28:26.816Z,9.70
2018-07-28T01:29:26.795Z,9.40
2018-07-28T01:30:26.974Z,9.10
2018-07-28T01:31:26.954Z,9.70
2018-07-28T01:32:26.729Z,9.80
2018-07-28T01:33:26.713Z,9.70
2018-07-28T01:34:26.689Z,8.80
2018-07-28T01:35:26.667Z,9.50
2018-07-28T01:36:26.646Z,9.60
2018-07-28T01:37:26.626Z,9.80
2018-07-28T01:38:26.604Z,9.60
2018-07-28T01:39:26.582Z,9.90
2018-07-28T01:40:26.560Z,9.60
2018-07-28T01:41:26.538Z,9.10
2018-07-28T01:42:26.516Z,9.40
2018-07-28T01:43:26.494Z,9.30
2018-07-28T01:44:26.474Z,9.70
2018-07-28T01:45:26.456Z,9.60
2018-07-28T01:46:26.434Z,9.60
2018-07-28T01:47:26.412Z,10.40
2018-07-28T01:48:26.389Z,10.10
2018-07-28T01:49:26.420Z,10.00
2018-07-28T01:50:26.345Z,9.30
2018-07-28T01:51:26.324Z,9.90
2018-07-28T01:52:26.309Z,9.80
2018-07-28T01:53:26.285Z,10.00
2018-07-28T01:54:26.266Z,9.70
2018-07-28T01:55:26.241Z,9.50
2018-07-28T01:56:26.220Z,9.80
2018-07-28T01:57:26.196Z,9.60
2018-07-28T01:58:26.378Z,9.50
2018-07-28T01:59:26.154Z,10.60
2018-07-28T02:00:26.133Z,10.20
2018-07-28T02:01:26.114Z,9.60
2018-07-28T02:02:26.092Z,10.30
2018-07-28T02:03:26.070Z,9.30
2018-07-28T02:04:26.054Z,10.00
2018-07-28T02:05:26.026Z,10.20
2018-07-28T02:06:26.005Z,9.80
2018-07-28T02:07:25.983Z,9.90
2018-07-28T02:08:25.965Z,10.10
2018-07-28T02:09:25.942Z,9.60
2018-07-28T02:10:25.919Z,9.90
2018-07-28T02:11:25.900Z,10.60
2018-07-28T02:12:25.876Z,9.90
2018-07-28T02:13:25.858Z,10.20
2018-07-28T02:14:25.836Z,10.70
2018-07-28T02:15:25.814Z,9.80
2018-07-28T02:16:25.791Z,10.00
2018-07-28T02:17:25.770Z,9.90
2018-07-28T02:18:25.749Z,9.80
2018-07-28T02:19:25.725Z,10.60
2018-07-28T02:20:25.709Z,9.80
2018-07-28T02:21:25.686Z,10.20
2018-07-28T02:22:25.664Z,11.10
2018-07-28T02:23:25.642Z,10.00
2018-07-28T02:24:25.620Z,10.40
2018-07-28T02:25:25.600Z,10.50
2018-07-28T02:26:25.579Z,10.50
2018-07-28T02:27:25.560Z,10.20
2018-07-28T02:28:25.536Z,10.00
2018-07-28T02:29:25.512Z,10.80
2018-07-28T02:30:25.493Z,10.10
2018-07-28T02:31:25.470Z,10.20
2018-07-28T02:32:25.449Z,10.40
2018-07-28T02:33:25.429Z,10.40
2018-07-28T02:34:25.431Z,10.30
2018-07-28T02:35:25.392Z,10.80
2018-07-28T02:36:25.363Z,10.50
2018-07-28T02:37:25.343Z,10.70
2018-07-28T02:38:25.319Z,10.90
2018-07-28T02:39:25.298Z,11.00
2018-07-28T02:40:25.282Z,10.50
2018-07-28T02:41:25.255Z,10.30
2018-07-28T02:42:25.233Z,10.50
2018-07-28T02:43:25.214Z,10.80
2018-07-28T02:44:25.194Z,10.70
2018-07-28T02:45:25.171Z,10.70
2018-07-28T02:46:25.151Z,10.80
2018-07-28T02:47:25.130Z,10.20
2018-07-28T02:48:25.105Z,10.20
2018-07-28T02:49:25.082Z,11.00
2018-07-28T02:50:25.062Z,10.50
2018-07-28T02:51:25.040Z,10.80
2018-07-28T02:52:25.017Z,10.80
2018-07-28T02:53:25.009Z,11.00
2018-07-28T02:54:24.977Z,11.20
2018-07-28T02:55:24.955Z,10.30
2018-07-28T02:56:24.932Z,10.40
2018-07-28T02:57:24.912Z,10.80
2018-07-28T02:58:24.890Z,10.60
2018-07-28T02:59:24.869Z,10.90
2018-07-28T03:00:24.970Z,11.80
2018-07-28T03:01:24.824Z,10.20
2018-07-28T03:02:24.803Z,10.60
2018-07-28T03:03:24.781Z,10.40
2018-07-28T03:04:24.764Z,10.30
2018-07-28T03:05:24.739Z,11.90
2018-07-28T03:06:24.719Z,11.10
2018-07-28T03:07:24.701Z,10.90
2018-07-28T03:08:24.675Z,10.60
2018-07-28T03:09:24.665Z,12.00
2018-07-28T03:10:24.630Z,10.90
2018-07-28T03:11:24.607Z,11.20
2018-07-28T03:12:24.587Z,11.10
2018-07-28T03:13:24.565Z,10.80
2018-07-28T03:14:24.543Z,11.40
2018-07-28T03:15:24.524Z,10.90
2018-07-28T03:16:24.505Z,10.90
2018-07-28T03:17:24.480Z,12.10
2018-07-28T03:18:24.458Z,10.90
2018-07-28T03:19:24.435Z,10.90
2018-07-28T03:20:24.417Z,11.10
2018-07-28T03:21:24.398Z,11.60
2018-07-28T03:22:24.371Z,12.50
2018-07-28T03:23:24.349Z,10.50
2018-07-28T03:24:24.327Z,11.00
2018-07-28T03:25:24.307Z,11.40
2018-07-28T03:26:24.285Z,11.20
2018-07-28T03:27:24.264Z,10.70
2018-07-28T03:28:24.246Z,11.30
2018-07-28T03:29:24.221Z,11.40
2018-07-28T03:30:24.207Z,11.50
2018-07-28T03:31:24.177Z,11.20
2018-07-28T03:32:24.158Z,11.20
2018-07-28T03:33:24.135Z,11.50
2018-07-28T03:34:24.114Z,11.20
2018-07-28T03:35:24.089Z,11.20
2018-07-28T03:36:24.067Z,11.40
2018-07-28T03:37:24.050Z,10.90
2018-07-28T03:38:24.028Z,11.50
2018-07-28T03:39:24.004Z,11.90
2018-07-28T03:40:24.184Z,11.60
2018-07-28T03:41:23.959Z,11.30
2018-07-28T03:42:23.937Z,11.30
2018-07-28T03:43:23.915Z,11.20
2018-07-28T03:44:23.896Z,11.00
2018-07-28T03:45:23.872Z,11.30
2018-07-28T03:46:23.851Z,11.40
2018-07-28T03:47:23.829Z,11.00
2018-07-28T03:48:23.806Z,11.40
2018-07-28T03:49:23.848Z,12.00
2018-07-28T03:50:23.766Z,11.90
2018-07-28T03:51:23.749Z,12.00
2018-07-28T03:52:23.724Z,11.40
2018-07-28T03:53:23.698Z,11.40
2018-07-28T03:54:23.681Z,11.40
2018-07-28T03:55:23.656Z,11.20
2018-07-28T03:56:23.672Z,11.10
2018-07-28T03:57:23.626Z,11.10
2018-07-28T03:58:23.592Z,11.30
2018-07-28T03:59:23.570Z,11.70
2018-07-28T04:00:23.560Z,11.90
2018-07-28T04:01:23.527Z,11.70
2018-07-28T04:02:23.504Z,10.90
2018-07-28T04:03:23.483Z,11.50
2018-07-28T04:04:23.474Z,11.90
2018-07-28T04:05:27.276Z,12.50
2018-07-28T04:06:23.624Z,11.70
2018-07-28T04:07:23.605Z,11.80
2018-07-28T04:08:23.377Z,11.60
2018-07-28T04:09:23.354Z,10.80
2018-07-28T04:10:23.332Z,11.60
2018-07-28T04:11:23.311Z,11.40
2018-07-28T04:12:23.293Z,11.90
2018-07-28T04:13:23.274Z,11.70
2018-07-28T04:14:23.311Z,10.60
2018-07-28T04:15:23.234Z,11.30
2018-07-28T04:16:23.208Z,11.00
2018-07-28T04:17:23.185Z,11.50
2018-07-28T04:18:23.164Z,11.20
2018-07-28T04:19:23.141Z,11.30
2018-07-28T04:20:23.122Z,10.60
2018-07-28T04:21:23.102Z,11.40
2018-07-28T04:22:23.077Z,11.50
2018-07-28T04:23:23.057Z,10.70
2018-07-28T04:24:23.034Z,11.80
2018-07-28T04:25:23.018Z,11.60
2018-07-28T04:26:22.995Z,11.70
2018-07-28T04:27:22.973Z,11.50
2018-07-28T04:28:22.950Z,11.30
2018-07-28T04:29:22.945Z,11.70
2018-07-28T04:30:22.912Z,11.00
2018-07-28T04:31:22.886Z,11.50
2018-07-28T04:32:22.862Z,11.60
2018-07-28T04:33:22.842Z,11.10
2018-07-28T04:34:22.821Z,11.60
2018-07-28T04:35:22.799Z,11.10
2018-07-28T04:36:22.779Z,12.10
2018-07-28T04:37:22.758Z,11.20
2018-07-28T04:38:22.742Z,12.00
2018-07-28T04:39:22.719Z,10.70
2018-07-28T04:40:22.701Z,11.50
2018-07-28T04:41:22.672Z,12.40
2018-07-28T04:42:22.650Z,11.20
2018-07-28T04:43:22.628Z,11.50
2018-07-28T04:44:22.613Z,11.90
2018-07-28T04:45:22.588Z,11.80
2018-07-28T04:46:22.568Z,12.40
2018-07-28T04:47:22.546Z,12.60
2018-07-28T04:48:22.525Z,12.10
2018-07-28T04:49:22.505Z,11.30
2018-07-28T04:50:22.482Z,11.50
2018-07-28T04:51:22.469Z,11.40
2018-07-28T04:52:22.441Z,11.20
2018-07-28T04:53:22.621Z,10.50
2018-07-28T04:54:23.211Z,10.50
2018-07-28T04:55:22.579Z,10.20
2018-07-28T04:56:22.354Z,10.20
2018-07-28T04:58:04.691Z,10.20
2018-07-28T04:59:04.673Z,10.50
2018-07-28T05:00:04.649Z,10.30
2018-07-28T05:01:04.633Z,10.90
2018-07-28T05:02:04.618Z,10.30
2018-07-28T05:03:04.391Z,10.20
2018-07-28T05:04:04.369Z,9.70
2018-07-28T05:05:04.347Z,10.20
2018-07-28T05:06:04.326Z,10.50
2018-07-28T05:07:04.306Z,9.80
2018-07-28T05:08:04.287Z,10.00
2018-07-28T05:09:04.269Z,9.80
2018-07-28T05:10:04.249Z,10.70
2018-07-28T05:11:04.228Z,9.90
2018-07-28T05:12:04.209Z,11.00
2018-07-28T05:13:04.190Z,10.20
2018-07-28T05:14:04.170Z,9.80
2018-07-28T05:15:04.151Z,9.80
2018-07-28T05:16:04.211Z,9.50
2018-07-28T05:17:04.113Z,10.00
2018-07-28T05:18:04.101Z,10.30
2018-07-28T05:19:04.070Z,10.30
2018-07-28T05:20:04.051Z,9.90
2018-07-28T05:21:04.033Z,10.50
2018-07-28T05:22:04.017Z,10.60
2018-07-28T05:23:03.995Z,9.90
2018-07-28T05:24:04.047Z,11.00
2018-07-28T05:25:03.958Z,10.00
2018-07-28T05:26:03.936Z,10.50
2018-07-28T05:27:03.917Z,10.40
2018-07-28T05:28:03.898Z,10.10
2018-07-28T05:29:04.087Z,10.50
2018-07-28T05:30:03.861Z,10.60
2018-07-28T05:31:03.841Z,10.00
2018-07-28T05:32:03.826Z,9.70
2018-07-28T05:33:03.807Z,9.90
2018-07-28T05:34:03.788Z,10.20
2018-07-28T05:35:03.769Z,10.30
2018-07-28T05:36:03.902Z,9.40
2018-07-28T05:37:03.775Z,9.40
2018-07-28T05:38:03.714Z,10.10
2018-07-28T05:39:03.727Z,9.70
2018-07-28T05:40:03.879Z,10.00
2018-07-28T05:41:03.660Z,9.80
2018-07-28T05:42:03.643Z,10.10
2018-07-28T05:43:03.624Z,9.60
2018-07-28T05:44:03.605Z,9.70
2018-07-28T05:45:03.590Z,9.60
2018-07-28T05:46:03.572Z,9.40
2018-07-28T05:47:03.558Z,10.00
2018-07-28T05:48:03.739Z,10.30
2018-07-28T05:49:03.522Z,10.10
2018-07-28T05:50:03.544Z,10.10
2018-07-28T05:51:03.478Z,10.00
2018-07-28T05:52:03.461Z,9.50
2018-07-28T05:53:03.450Z,9.70
2018-07-28T05:54:03.428Z,10.00
2018-07-28T05:55:03.410Z,9.80
2018-07-28T05:56:03.393Z,10.10
2018-07-28T05:57:03.374Z,9.90
2018-07-28T05:58:03.356Z,9.60
2018-07-28T05:59:03.341Z,9.60
2018-07-28T06:00:03.321Z,9.50
2018-07-28T06:01:03.306Z,9.40
2018-07-28T06:02:03.491Z,9.90
2018-07-28T06:03:03.271Z,9.30
2018-07-28T06:04:03.256Z,10.10
2018-07-28T06:05:03.244Z,10.60
2018-07-28T06:06:03.521Z,10.00
2018-07-28T06:07:07.037Z,9.20
2018-07-28T06:08:03.386Z,9.60
2018-07-28T06:09:03.171Z,10.10
2018-07-28T06:10:03.371Z,8.80
2018-07-28T06:11:03.141Z,9.40
2018-07-28T06:12:03.120Z,10.00
2018-07-28T06:13:03.103Z,9.40
2018-07-28T06:14:03.125Z,9.30
2018-07-28T06:15:03.069Z,9.70
2018-07-28T06:16:03.051Z,9.20
2018-07-28T06:17:03.037Z,9.40
2018-07-28T06:18:03.017Z,9.30
2018-07-28T06:19:03.001Z,9.90
2018-07-28T06:20:02.988Z,10.50
2018-07-28T06:21:02.971Z,9.50
2018-07-28T06:22:03.042Z,9.40
2018-07-28T06:23:02.938Z,9.70
2018-07-28T06:24:02.923Z,10.00
2018-07-28T06:25:03.109Z,9.40
2018-07-28T06:26:02.954Z,9.00
2018-07-28T06:27:02.871Z,9.40
2018-07-28T06:28:02.866Z,9.40
2018-07-28T06:29:02.851Z,9.40
2018-07-28T06:30:02.826Z,9.10
2018-07-28T06:31:02.810Z,9.70
2018-07-28T06:32:02.797Z,9.50
2018-07-28T06:33:02.778Z,9.30
2018-07-28T06:34:02.965Z,8.90
2018-07-28T06:35:02.745Z,9.10
2018-07-28T06:36:02.936Z,9.40
2018-07-28T06:37:02.915Z,9.30
2018-07-28T06:38:02.899Z,9.20
2018-07-28T06:39:02.680Z,9.60
2018-07-28T06:40:02.867Z,9.70
2018-07-28T06:41:02.652Z,9.00
2018-07-28T06:42:02.637Z,9.00
2018-07-28T06:43:02.622Z,8.90
2018-07-28T06:44:02.607Z,8.70
2018-07-28T06:45:02.587Z,8.90
2018-07-28T06:46:02.572Z,8.70
2018-07-28T06:47:02.761Z,9.00
2018-07-28T06:48:02.544Z,9.10
2018-07-28T06:49:02.527Z,8.20
2018-07-28T06:50:02.511Z,8.80
2018-07-28T06:51:02.696Z,8.60
2018-07-28T06:52:02.480Z,8.00
2018-07-28T06:53:02.468Z,8.00
2018-07-28T06:54:02.655Z,8.60
2018-07-28T06:55:02.640Z,7.50
2018-07-28T06:56:02.622Z,8.20
2018-07-28T06:57:02.405Z,8.30
2018-07-28T06:58:02.591Z,8.80
2018-07-28T06:59:02.576Z,8.30
2018-07-28T07:00:02.561Z,9.00
2018-07-28T07:01:44.707Z,8.00
2018-07-28T07:02:44.487Z,8.20
2018-07-28T07:03:44.479Z,8.10
2018-07-28T07:04:51.701Z,8.70
2018-07-28T07:05:44.444Z,8.20
2018-07-28T07:06:44.428Z,8.20
2018-07-28T07:07:44.622Z,8.70
2018-07-28T07:08:44.398Z,7.70
2018-07-28T07:09:44.589Z,9.10
2018-07-28T07:11:26.730Z,8.40
2018-07-28T07:13:08.873Z,7.60
2018-07-28T07:14:12.693Z,7.90
2018-07-28T07:15:08.842Z,8.60
2018-07-28T07:16:08.831Z,8.20
2018-07-28T07:17:08.815Z,8.30
2018-07-28T07:18:08.801Z,8.50
2018-07-28T07:19:50.945Z,8.80
2018-07-28T07:20:53.347Z,9.30
2018-07-28T07:21:50.710Z,9.00
2018-07-28T07:22:51.202Z,9.60
2018-07-28T07:23:50.883Z,9.20
2018-07-28T07:35:23.396Z,8.30
2018-07-28T07:36:23.232Z,8.10
2018-07-28T07:37:26.104Z,8.60
2018-07-28T07:38:24.020Z,8.70
2018-07-28T07:40:05.348Z,7.80
2018-07-28T07:41:05.129Z,7.80
2018-07-28T07:42:05.116Z,8.70
2018-07-28T07:43:05.309Z,8.40
2018-07-28T07:44:05.292Z,8.50
2018-07-28T07:45:05.278Z,8.60
2018-07-28T07:46:05.266Z,8.50
2018-07-28T07:47:05.058Z,8.10
2018-07-28T07:48:05.233Z,7.90
2018-07-28T07:56:49.124Z,7.40
2018-07-28T07:57:48.756Z,7.10
2018-07-28T07:58:48.740Z,7.60
2018-07-28T07:59:48.732Z,7.50
2018-07-28T08:00:48.922Z,7.70
2018-07-28T08:01:48.923Z,7.90
2018-07-28T08:02:48.688Z,7.50
2018-07-28T08:03:48.673Z,7.30
2018-07-28T08:04:48.890Z,7.80
2018-07-28T08:05:48.859Z,7.40
2018-07-28T08:06:48.634Z,7.50
2018-07-28T08:07:48.626Z,7.90
2018-07-28T08:08:48.613Z,7.40
2018-07-28T08:09:48.601Z,7.20
2018-07-28T08:10:48.588Z,7.30
2018-07-28T08:11:48.571Z,7.90
2018-07-28T08:12:48.559Z,7.40
2018-07-28T08:13:48.747Z,7.60
2018-07-28T08:14:48.734Z,7.50
2018-07-28T08:15:48.720Z,7.50
2018-07-28T08:16:48.505Z,7.80
2018-07-28T08:17:48.693Z,7.90
2018-07-28T08:18:52.114Z,8.10
2018-07-28T08:19:48.469Z,8.10
2018-07-28T08:20:48.664Z,8.80
2018-07-28T08:21:48.445Z,8.20
2018-07-28T08:22:48.640Z,7.60
2018-07-28T08:23:48.620Z,7.60
2018-07-28T08:24:48.612Z,7.60
2018-07-28T08:25:48.603Z,7.80
2018-07-28T08:26:51.282Z,7.80
2018-07-28T08:28:30.732Z,8.00
2018-07-28T08:29:30.720Z,8.00
2018-07-28T08:30:30.507Z,7.90
2018-07-28T08:31:30.496Z,8.30
2018-07-28T08:32:30.692Z,8.00
2018-07-28T08:33:30.746Z,8.10
2018-07-28T08:34:30.460Z,8.30
2018-07-28T08:35:30.648Z,8.00
2018-07-28T08:36:34.274Z,8.20
2018-07-28T08:37:30.624Z,7.60
2018-07-28T08:38:30.614Z,8.60
2018-07-28T08:39:30.412Z,8.40
2018-07-28T08:40:30.595Z,8.20
2018-07-28T08:41:30.580Z,8.00
2018-07-28T08:42:30.366Z,8.40
2018-07-28T08:43:30.558Z,8.60
2018-07-28T08:44:31.356Z,8.30
2018-07-28T08:45:30.543Z,8.60
2018-07-28T08:46:30.528Z,8.10
2018-07-28T08:47:30.509Z,8.70
2018-07-28T08:48:30.503Z,8.50
2018-07-28T08:49:30.541Z,8.70
2018-07-28T08:50:30.476Z,8.90
2018-07-28T08:51:30.464Z,8.90
2018-07-28T08:52:30.259Z,8.60
2018-07-28T08:53:30.242Z,9.10
2018-07-28T08:54:30.234Z,9.00
2018-07-28T08:55:30.251Z,8.90
2018-07-28T08:56:30.204Z,8.20
2018-07-28T08:57:30.193Z,8.40
2018-07-28T08:58:30.182Z,8.90
2018-07-28T08:59:30.373Z,8.20
2018-07-28T09:00:30.363Z,8.60
2018-07-28T09:01:30.356Z,7.80
2018-07-28T09:02:30.491Z,8.10
2018-07-28T09:03:30.330Z,7.90
2018-07-28T09:04:30.320Z,8.30
2018-07-28T09:05:30.308Z,8.20
2018-07-28T09:07:12.457Z,7.30
2018-07-28T09:08:12.447Z,7.60
2018-07-28T09:09:12.233Z,7.20
2018-07-28T09:10:12.225Z,7.40
2018-07-28T09:11:12.430Z,7.60
2018-07-28T09:12:12.202Z,6.90
2018-07-28T09:13:12.399Z,7.10
2018-07-28T09:14:12.183Z,7.40
2018-07-28T09:15:12.171Z,7.20
2018-07-28T09:16:12.362Z,7.20
2018-07-28T09:17:12.149Z,6.50
2018-07-28T09:18:12.142Z,6.70
2018-07-28T09:19:12.134Z,7.00
2018-07-28T09:20:12.119Z,7.40
2018-07-28T09:21:12.110Z,7.70
2018-07-28T09:22:12.098Z,8.60
2018-07-28T09:23:12.128Z,8.60
2018-07-28T09:24:12.079Z,7.80
2018-07-28T09:25:12.270Z,6.80
2018-07-28T09:26:12.265Z,6.40
2018-07-28T09:27:54.411Z,6.40
2018-07-28T09:29:36.567Z,6.90
2018-07-28T09:30:36.428Z,6.70
2018-07-28T09:31:36.340Z,6.20
2018-07-28T09:32:36.335Z,6.20
2018-07-28T09:33:36.323Z,6.50
2018-07-28T09:34:36.313Z,6.00
2018-07-28T09:35:36.506Z,6.10
2018-07-28T09:36:36.542Z,5.80
2018-07-28T09:37:36.492Z,6.20
2018-07-28T09:38:36.276Z,5.80
2018-07-28T09:39:36.262Z,6.30
2018-07-28T09:40:36.256Z,5.50
2018-07-28T09:41:36.245Z,5.40
2018-07-28T09:42:36.241Z,5.90
2018-07-28T09:43:36.226Z,5.60
2018-07-28T09:44:36.226Z,5.60
2018-07-28T09:45:36.207Z,5.40
2018-07-28T09:46:36.197Z,5.40
2018-07-28T09:47:36.389Z,5.30
2018-07-28T09:48:36.379Z,5.90
2018-07-28T09:49:36.368Z,5.80
2018-07-28T09:50:36.156Z,5.70
2018-07-28T09:51:36.145Z,5.90
2018-07-28T09:52:36.138Z,5.60
2018-07-28T09:53:36.134Z,5.80
2018-07-28T09:54:36.117Z,5.60
2018-07-28T09:55:36.106Z,5.50
2018-07-28T09:56:36.097Z,5.90
2018-07-28T09:57:36.089Z,5.50
2018-07-28T09:58:36.075Z,5.00
2018-07-28T09:59:36.066Z,5.00
2018-07-28T10:00:36.057Z,5.10
2018-07-28T10:01:36.048Z,5.20
2018-07-28T10:02:36.038Z,4.80
2018-07-28T10:03:36.028Z,4.90
2018-07-28T10:04:36.021Z,5.10
2018-07-28T10:05:36.043Z,5.50
2018-07-28T10:06:36.010Z,5.10
2018-07-28T10:07:35.993Z,5.00
2018-07-28T10:08:35.979Z,5.30
2018-07-28T10:09:35.971Z,5.40
2018-07-28T10:10:35.964Z,4.90
2018-07-28T10:11:36.155Z,5.00
2018-07-28T10:12:35.949Z,4.80
2018-07-28T10:13:35.934Z,4.90
2018-07-28T10:14:35.924Z,5.30
2018-07-28T10:15:35.916Z,4.50
2018-07-28T10:16:35.911Z,5.00
2018-07-28T10:17:36.102Z,4.60
2018-07-28T10:18:35.889Z,4.80
2018-07-28T10:19:36.083Z,4.90
2018-07-28T10:20:36.079Z,4.40
2018-07-28T10:21:35.863Z,4.50
2018-07-28T10:22:35.859Z,5.00
2018-07-28T10:23:35.842Z,4.70
2018-07-28T10:24:35.870Z,5.10
2018-07-28T10:25:35.824Z,5.10
2018-07-28T10:26:35.827Z,5.00
2018-07-28T10:27:35.809Z,4.90
2018-07-28T10:28:35.792Z,4.70
2018-07-28T10:29:35.782Z,4.40
2018-07-28T10:30:35.772Z,5.40
2018-07-28T10:31:35.762Z,4.90
2018-07-28T10:32:35.758Z,4.50
2018-07-28T10:33:35.746Z,4.90
2018-07-28T10:34:35.742Z,4.90
2018-07-28T10:35:35.725Z,4.60
2018-07-28T10:36:35.795Z,4.60
2018-07-28T10:37:35.704Z,4.40
2018-07-28T10:38:35.698Z,5.20
2018-07-28T10:39:35.888Z,4.30
2018-07-28T10:40:35.679Z,4.60
2018-07-28T10:41:35.683Z,4.70
2018-07-28T10:42:35.676Z,4.70
2018-07-28T10:43:35.652Z,4.50
2018-07-28T10:44:35.637Z,4.50
2018-07-28T10:45:35.658Z,4.80
2018-07-28T10:46:35.621Z,4.10
2018-07-28T10:47:35.609Z,4.70
2018-07-28T10:48:35.630Z,4.50
2018-07-28T10:49:35.591Z,4.20
2018-07-28T10:50:35.579Z,4.30
2018-07-28T10:51:35.570Z,5.00
2018-07-28T10:52:35.561Z,4.70
2018-07-28T10:53:35.553Z,4.40
2018-07-28T10:54:35.547Z,4.60
2018-07-28T10:55:35.610Z,4.20
2018-07-28T10:56:35.524Z,4.40
2018-07-28T10:57:35.514Z,4.20
2018-07-28T10:58:35.506Z,4.70
2018-07-28T10:59:35.498Z,4.70
2018-07-28T11:00:35.488Z,4.50
2018-07-28T11:01:35.480Z,4.60
2018-07-28T11:02:35.471Z,4.30
2018-07-28T11:03:35.460Z,4.20
2018-07-28T11:04:35.452Z,4.40
2018-07-28T11:05:35.443Z,3.80
2018-07-28T11:06:35.433Z,3.80
2018-07-28T11:07:35.423Z,4.00
2018-07-28T11:08:35.412Z,4.00
2018-07-28T11:09:35.402Z,3.90
2018-07-28T11:10:35.391Z,4.60
2018-07-28T11:11:35.380Z,4.10
2018-07-28T11:12:35.372Z,4.30
2018-07-28T11:13:35.361Z,4.40
2018-07-28T11:14:35.348Z,4.30
2018-07-28T11:15:35.338Z,4.50
2018-07-28T11:16:35.324Z,4.70
2018-07-28T11:17:35.313Z,4.40
2018-07-28T11:18:35.327Z,4.60
2018-07-28T11:19:35.289Z,4.80
2018-07-28T11:20:35.287Z,4.50
2018-07-28T11:21:35.271Z,4.90
2018-07-28T11:22:35.462Z,4.00
2018-07-28T11:23:35.242Z,4.70
2018-07-28T11:24:35.235Z,4.80
2018-07-28T11:25:35.241Z,4.20
2018-07-28T11:26:35.208Z,4.10
2018-07-28T11:27:35.196Z,4.40
2018-07-28T11:28:35.185Z,4.50
2018-07-28T11:29:35.169Z,4.10
2018-07-28T11:30:35.155Z,4.40
2018-07-28T11:31:35.181Z,4.30
2018-07-28T11:32:35.134Z,4.60
2018-07-28T11:33:35.126Z,3.90
2018-07-28T11:34:35.513Z,4.20
2018-07-28T11:39:06.102Z,5.40
2018-07-28T11:40:06.090Z,5.30
2018-07-28T11:41:09.714Z,5.50
2018-07-28T11:42:05.883Z,4.80
2018-07-28T11:43:05.854Z,4.30
2018-07-28T11:44:08.467Z,4.00
2018-07-28T11:45:05.833Z,4.10
2018-07-28T11:46:06.024Z,4.00
2018-07-28T11:47:05.811Z,4.20
2018-07-28T11:48:06.003Z,4.60
2018-07-28T11:49:05.800Z,4.90
2018-07-28T11:50:05.987Z,4.70
2018-07-28T11:51:05.785Z,8.20
2018-07-28T11:52:05.969Z,4.20
2018-07-28T11:53:05.969Z,3.60
2018-07-28T11:54:05.953Z,4.20
2018-07-28T11:55:05.947Z,3.80
2018-07-28T11:56:48.101Z,3.60
2018-07-28T11:57:48.097Z,4.00
2018-07-28T11:58:47.882Z,3.80
2018-07-28T11:59:48.081Z,4.20
2018-07-28T12:00:47.871Z,3.90
2018-07-28T12:01:48.140Z,4.40
2018-07-28T12:04:54.555Z,4.10
2018-07-28T12:05:54.345Z,4.00
2018-07-28T12:06:54.342Z,4.00
2018-07-28T12:07:54.339Z,4.10
2018-07-28T12:08:54.325Z,4.10
2018-07-28T12:09:54.318Z,3.90
2018-07-28T12:10:54.312Z,3.90
2018-07-28T12:11:54.306Z,4.10
2018-07-28T12:12:54.296Z,4.00
2018-07-28T12:13:54.289Z,3.90
2018-07-28T12:14:54.282Z,4.20
2018-07-28T12:15:54.285Z,4.00
2018-07-28T12:16:54.472Z,4.40
2018-07-28T12:17:54.264Z,4.30
2018-07-28T12:18:54.256Z,4.30
2018-07-28T12:19:54.249Z,3.90
2018-07-28T12:20:58.280Z,3.90
2018-07-28T12:26:10.047Z,4.30
2018-07-28T12:34:02.564Z,4.40
2018-07-28T12:50:30.167Z,4.10
2018-07-28T13:02:02.614Z,4.40
2018-07-28T13:03:44.768Z,4.20
2018-07-28T13:04:44.759Z,4.30
2018-07-28T13:05:44.747Z,4.10
2018-07-28T13:06:44.540Z,4.40
2018-07-28T13:07:44.531Z,4.30
2018-07-28T13:08:44.720Z,4.30
2018-07-28T13:09:44.921Z,4.70
2018-07-28T13:10:44.708Z,4.20
2018-07-28T13:11:44.497Z,4.30
2018-07-28T13:12:45.082Z,4.40
2018-07-28T13:13:44.666Z,4.10
2018-07-28T13:14:44.463Z,4.70
2018-07-28T13:15:45.658Z,4.20
2018-07-28T13:16:44.632Z,4.70
2018-07-28T13:18:26.781Z,4.60
2018-07-28T13:19:26.769Z,4.80
2018-07-28T13:21:51.079Z,4.70
2018-07-28T13:22:51.066Z,5.20
2018-07-28T13:23:51.053Z,4.90
2018-07-28T13:24:51.044Z,5.10
2018-07-28T13:25:52.042Z,4.90
2018-07-28T13:26:53.636Z,4.90
2018-07-28T13:27:51.002Z,5.00
2018-07-28T13:28:50.786Z,5.00
2018-07-28T13:29:53.686Z,5.10
2018-07-28T13:30:50.960Z,5.00
2018-07-28T13:32:33.107Z,5.10
2018-07-28T13:33:33.092Z,5.50
2018-07-28T13:34:33.076Z,5.00
2018-07-28T13:35:32.863Z,5.50
2018-07-28T13:36:33.051Z,5.10
2018-07-28T13:37:33.033Z,5.50
2018-07-28T13:38:33.021Z,10.30
2018-07-28T13:39:33.004Z,15.30
2018-07-28T13:40:32.990Z,16.00
2018-07-28T13:41:33.984Z,12.50
2018-07-28T13:42:32.957Z,13.40
2018-07-28T13:44:57.255Z,13.90
2018-07-28T13:47:21.823Z,10.30
2018-07-28T13:49:46.116Z,7.80
2018-07-28T13:51:28.251Z,7.70
2018-07-28T13:52:28.230Z,7.90
2018-07-28T13:54:10.368Z,7.50
2018-07-28T13:55:10.145Z,7.50
2018-07-28T13:56:11.340Z,9.00
2018-07-28T13:57:10.315Z,9.30
2018-07-28T13:58:10.087Z,8.90
2018-07-28T13:59:10.320Z,9.10
2018-07-28T14:00:10.050Z,9.20
2018-07-28T14:01:52.383Z,9.90
2018-07-28T14:03:37.746Z,11.70
2018-07-28T14:04:36.102Z,13.20
2018-07-28T14:05:34.275Z,15.40
2018-07-28T14:07:34.232Z,13.60
2018-07-28T14:08:34.410Z,16.10
2018-07-28T14:09:34.187Z,16.50
2018-07-28T14:10:34.370Z,15.70
2018-07-28T14:11:34.144Z,14.40
2018-07-28T14:12:34.325Z,14.00
2018-07-28T14:13:34.101Z,14.80
2018-07-28T14:14:34.140Z,15.60
2018-07-28T14:15:34.063Z,18.10
2018-07-28T14:16:34.036Z,16.70
2018-07-28T14:17:34.016Z,15.00
2018-07-28T14:18:34.299Z,16.40
2018-07-28T14:19:34.174Z,18.00
2018-07-28T14:20:34.153Z,19.10
2018-07-28T14:21:34.940Z,18.30
2018-07-28T14:22:34.110Z,15.50
2018-07-28T14:23:34.086Z,16.70
2018-07-28T14:24:34.062Z,16.80
2018-07-28T14:25:33.841Z,18.10
2018-07-28T14:26:34.021Z,21.00
2018-07-28T14:27:34.115Z,22.00
2018-07-28T14:28:33.977Z,23.70
2018-07-28T14:29:33.956Z,25.20
2018-07-28T14:30:33.933Z,21.80
2018-07-28T14:31:33.957Z,21.00